Wu Yi Hai — BQCF — position and weather

sailwx.info

Track history (hours):
 
Tides and Currents Weather Stations Pressure Air Temp Water Temp Dewpoint Dewpoint Depression Visibility Wind Speed Wind Dir Waves Ship Positions

Wu Yi Hai

Last reported at 2018-Feb-14 05:56 UTC. Time now 2018-Feb-21 07:22 UTC.
Position N 22°27' E 116°06'.

Length 190 m; draft 12.4 m.

Type: Cargo ship. MMSI: 413360000.

Date/timePositionNaut miles runAvg speedWind from/ knotsBaromVisibWave heightAir tempDewpointWater temp
2018-Feb-14 05:56N 22°27' E 116°06'611.9
2018-Feb-14 05:28N 22°30' E 116°12'612.3
2018-Feb-14 05:00N 22°32' E 116°17'8711.3
2018-Feb-13 21:19N 23°15' E 117°39'411.5
2018-Feb-13 20:59N 23°18' E 117°42'611.7
2018-Feb-13 20:27N 23°22' E 117°47'512.0
2018-Feb-13 20:00N 23°26' E 117°51'912.2
2018-Feb-13 19:17N 23°32' E 117°57'412.4
2018-Feb-13 19:00N 23°35' E 118°00'1112.6
2018-Feb-13 18:06N 23°43' E 118°09'112.2
2018-Feb-13 17:59N 23°44' E 118°10'812.4
2018-Feb-13 17:20N 23°50' E 118°16'512.3
2018-Feb-13 16:57N 23°53' E 118°20'512.0
2018-Feb-13 16:31N 23°57' E 118°23'611.9
2018-Feb-13 16:00N 24°02' E 118°26'612.0
2018-Feb-13 15:30N 24°07' E 118°31'911.3
2018-Feb-13 14:43N 24°11' E 118°39'311.7
2018-Feb-13 14:30N 24°13' E 118°41'  
2018-Feb-10 07:37N 37°39' E 122°10'212.2
2018-Feb-10 07:29N 37°40' E 122°08'612.3
2018-Feb-10 07:00N 37°41' E 122°01'612.2
2018-Feb-10 06:30N 37°43' E 121°54'611.9
2018-Feb-10 06:00N 37°45' E 121°47'612.1
2018-Feb-10 05:31N 37°48' E 121°40'612.1
2018-Feb-10 05:00N 37°50' E 121°32'612.2
2018-Feb-10 04:30N 37°52' E 121°25'612.3
2018-Feb-10 04:00N 37°53' E 121°18'712.3
2018-Feb-10 03:27N 37°55' E 121°09'  
Track history (hours):
 
Tides and Currents Weather Stations Pressure Air Temp Water Temp Dewpoint Dewpoint Depression Visibility Wind Speed Wind Dir Waves Ship Positions

Wu Yi Hai

Last reported at 2018-Feb-14 05:56 UTC. Time now 2018-Feb-21 07:22 UTC.
Position N 22°27' E 116°06'.

Length 190 m; draft 12.4 m.

Type: Cargo ship. MMSI: 413360000.

Date/timePositionNaut miles runAvg speedWind from/ knotsBaromVisibWave heightAir tempDewpointWater temp
2018-Feb-14 05:56N 22°27' E 116°06'611.9
2018-Feb-14 05:28N 22°30' E 116°12'612.3
2018-Feb-14 05:00N 22°32' E 116°17'8711.3
2018-Feb-13 21:19N 23°15' E 117°39'411.5
2018-Feb-13 20:59N 23°18' E 117°42'611.7
2018-Feb-13 20:27N 23°22' E 117°47'512.0
2018-Feb-13 20:00N 23°26' E 117°51'912.2
2018-Feb-13 19:17N 23°32' E 117°57'412.4
2018-Feb-13 19:00N 23°35' E 118°00'1112.6
2018-Feb-13 18:06N 23°43' E 118°09'112.2
2018-Feb-13 17:59N 23°44' E 118°10'812.4
2018-Feb-13 17:20N 23°50' E 118°16'512.3
2018-Feb-13 16:57N 23°53' E 118°20'512.0
2018-Feb-13 16:31N 23°57' E 118°23'611.9
2018-Feb-13 16:00N 24°02' E 118°26'612.0
2018-Feb-13 15:30N 24°07' E 118°31'911.3
2018-Feb-13 14:43N 24°11' E 118°39'311.7
2018-Feb-13 14:30N 24°13' E 118°41'  
2018-Feb-10 07:37N 37°39' E 122°10'212.2
2018-Feb-10 07:29N 37°40' E 122°08'612.3
2018-Feb-10 07:00N 37°41' E 122°01'612.2
2018-Feb-10 06:30N 37°43' E 121°54'611.9
2018-Feb-10 06:00N 37°45' E 121°47'612.1
2018-Feb-10 05:31N 37°48' E 121°40'612.1
2018-Feb-10 05:00N 37°50' E 121°32'612.2
2018-Feb-10 04:30N 37°52' E 121°25'612.3
2018-Feb-10 04:00N 37°53' E 121°18'712.3
2018-Feb-10 03:27N 37°55' E 121°09'  

Dump ship's entire track history